ADDS METAR Data INFO
IDs: Format: Raw Decoded Include TAF

Data at: 0435 UTC 28 Jul 2017

KCXO 280353Z AUTO 16006KT 10SM CLR 28/23 A2995 RMK AO2 SLP138 T02780228
KCXO 280253Z AUTO 16007KT 10SM CLR 28/23 A2994 RMK AO2 SLP135 T02830233 50001
KCXO 280153Z 14005KT 10SM CLR 29/22 A2995 RMK AO2 SLP136 T02940222
KCXO 280053Z 16008KT 10SM CLR 32/23 A2994 RMK AO2 SLP136 T03170228
KCXO 272353Z 13005KT 10SM CLR 34/21 A2994 RMK AO2 SLP134 T03390211 10356 20333 56019
KCXO 272253Z 12006KT 10SM CLR 35/21 A2995 RMK AO2 SLP138 T03500206
KCXO 272153Z 15006KT 10SM CLR 35/20 A2997 RMK AO2 SLP144 T03500200
KCXO 272053Z 14004KT 10SM FEW065 FEW085 35/21 A2999 RMK AO2 SLP153 T03500206 56023
KCXO 271953Z 20008KT 10SM BKN055 34/21 A3001 RMK AO2 SLP160 T03390206
KCXO 271853Z 17008G14KT 10SM SCT049 35/22 A3004 RMK AO2 SLP168 T03500217
KCXO 271753Z VRB04G14KT 10SM CLR 33/21 A3006 RMK AO2 SLP176 T03330206 10339 20228 58004
KCXO 271653Z 19008KT 10SM FEW038 33/22 A3008 RMK AO2 SLP183 T03280222
KCXO 271553Z 22008KT 10SM FEW028 32/23 A3008 RMK AO2 SLP183 T03170228
KCXO 271453Z 25007KT 10SM CLR 29/23 A3007 RMK AO2 SLP180 T02940233 51007
KCXO 271353Z 22005KT 10SM FEW011 28/24 A3007 RMK AO2 SLP178 T02830244
KCXO 271253Z 00000KT 10SM CLR 26/23 A3006 RMK AO2 SLP175 T02560233
KCXO 271153Z 00000KT 10SM FEW016 23/22 A3005 RMK AO2 SLP173 T02280217 10256 20222 53004
KCXO 271111Z 00000KT 10SM BKN015 23/22 A3005 RMK AO2 T02280222
KCXO 271053Z 00000KT 10SM FEW016 23/22 A3004 RMK AO2 SLP168 T02280217
KCXO 271008Z AUTO 00000KT 10SM SCT018 23/22 A3003 RMK AO2 T02330222
KCXO 270953Z AUTO 00000KT 10SM BKN018 23/22 A3004 RMK AO2 SLP169 T02330222
KCXO 270942Z AUTO 00000KT 10SM BKN018 23/22 A3005 RMK AO2 T02330222
KCXO 270853Z AUTO 14005KT 10SM CLR 23/22 A3004 RMK AO2 SLP168 T02330222 58005
KCXO 270753Z AUTO 00000KT 10SM CLR 26/23 A3005 RMK AO2 SLP173 T02560228
KCXO 270653Z AUTO 00000KT 10SM CLR 24/22 A3005 RMK AO2 SLP173 T02440222
KCXO 270553Z AUTO 15004KT 10SM CLR 26/23 A3005 RMK AO2 SLP173 T02560228 10328 20256 403560233 51005
KCXO 270453Z AUTO 17007KT 10SM CLR 27/23 A3005 RMK AO2 SLP173 T02720228
KCXO 270353Z AUTO 14004KT 10SM CLR 27/23 A3006 RMK AO2 SLP174 T02720228
KCXO 270253Z AUTO 15006KT 10SM FEW035 28/24 A3004 RMK AO2 SLP168 T02780239 53005
KCXO 270153Z 14006KT 10SM FEW039 30/24 A3003 RMK AO2 SLP166 T03000239
KCXO 270053Z 15007KT 10SM CLR 32/23 A3003 RMK AO2 SLP165 T03170233
KCXO 262353Z 16011KT 10SM CLR 33/23 A3002 RMK AO2 LTG DSNT W SLP163 T03280228 10356 20328 56006
KCXO 262253Z 15015KT 10SM CLR 33/23 A3003 RMK AO2 LTG DSNT E AND SW SLP163 T03330228
KCXO 262240Z 15015G20KT 10SM FEW050 33/23 A3003 RMK AO2 LTG DSNT E AND SW T03330233
KCXO 262222Z 16010G15KT 10SM VCTS CLR 35/22 A3002 RMK AO2 LTG DSNT E T03500217
KCXO 262153Z 14008KT 10SM FEW050 36/22 A3003 RMK AO2 LTG DSNT E AND SE SLP163 T03560222
KCXO 262053Z 15009KT 10SM FEW055 36/21 A3004 RMK AO2 LTG DSNT S SLP169 T03560211 58017
KCXO 261953Z 22005KT 10SM FEW050 35/22 A3007 RMK AO2 SLP178 T03500217
KCXO 261853Z 16008KT 10SM SCT050 34/21 A3009 RMK AO2 SLP184 T03390211
KCXO 261753Z 21008KT 10SM FEW042 34/22 A3009 RMK AO2 SLP186 T03440217 10344 20233 58011
KCXO 261653Z 21005KT 10SM CLR 33/22 A3011 RMK AO2 SLP192 T03280217